createdAt,value
2017-07-06T00:01:11.154Z,1014.37
2017-07-06T00:02:10.778Z,1014.41
2017-07-06T00:03:10.718Z,1014.38
2017-07-06T00:04:10.650Z,1014.36
2017-07-06T00:05:10.587Z,1014.37
2017-07-06T00:06:10.525Z,1014.36
2017-07-06T00:07:10.462Z,1014.37
2017-07-06T00:08:10.398Z,1014.33
2017-07-06T00:09:10.338Z,1014.37
2017-07-06T00:10:10.273Z,1014.33
2017-07-06T00:11:10.208Z,1014.37
2017-07-06T00:12:10.146Z,1014.36
2017-07-06T00:13:10.083Z,1014.34
2017-07-06T00:14:10.021Z,1014.34
2017-07-06T00:15:09.957Z,1014.34
2017-07-06T00:16:09.893Z,1014.33
2017-07-06T00:17:09.831Z,1014.32
2017-07-06T00:18:09.777Z,1014.32
2017-07-06T00:19:09.704Z,1014.31
2017-07-06T00:20:09.645Z,1014.31
2017-07-06T00:21:09.579Z,1014.32
2017-07-06T00:22:09.516Z,1014.34
2017-07-06T00:23:09.452Z,1014.34
2017-07-06T00:24:09.392Z,1014.33
2017-07-06T00:25:09.328Z,1014.33
2017-07-06T00:26:09.263Z,1014.32
2017-07-06T00:27:09.203Z,1014.3
2017-07-06T00:28:09.138Z,1014.24
2017-07-06T00:29:09.075Z,1014.3
2017-07-06T00:30:09.012Z,1014.26
2017-07-06T00:31:08.951Z,1014.25
2017-07-06T00:32:08.888Z,1014.26
2017-07-06T00:33:08.822Z,1014.32
2017-07-06T00:34:08.763Z,1014.3
2017-07-06T00:35:08.698Z,1014.29
2017-07-06T00:36:08.634Z,1014.34
2017-07-06T00:37:08.570Z,1014.39
2017-07-06T00:38:08.508Z,1014.37
2017-07-06T00:39:08.444Z,1014.36
2017-07-06T00:40:08.382Z,1014.32
2017-07-06T00:41:08.318Z,1014.35
2017-07-06T00:42:08.505Z,1014.32
2017-07-06T00:43:08.192Z,1014.33
2017-07-06T00:44:08.130Z,1014.38
2017-07-06T00:45:08.067Z,1014.36
2017-07-06T00:46:08.003Z,1014.39
2017-07-06T00:47:07.941Z,1014.35
2017-07-06T00:48:07.877Z,1014.34
2017-07-06T00:49:07.815Z,1014.34
2017-07-06T00:50:07.754Z,1014.29
2017-07-06T00:51:07.689Z,1014.3
2017-07-06T00:52:07.625Z,1014.3
2017-07-06T00:53:07.562Z,1014.24
2017-07-06T00:54:07.500Z,1014.26
2017-07-06T00:55:07.435Z,1014.23
2017-07-06T00:56:07.373Z,1014.23
2017-07-06T00:57:07.310Z,1014.23
2017-07-06T00:58:07.247Z,1014.21
2017-07-06T00:59:07.184Z,1014.18
2017-07-06T01:00:07.121Z,1014.15
2017-07-06T01:01:07.058Z,1014.14
2017-07-06T01:02:06.995Z,1014.15
2017-07-06T01:03:06.931Z,1014.16
2017-07-06T01:04:06.869Z,1014.15
2017-07-06T01:05:06.806Z,1014.18
2017-07-06T01:06:06.743Z,1014.19
2017-07-06T01:07:06.680Z,1014.2
2017-07-06T01:08:06.617Z,1014.19
2017-07-06T01:09:06.554Z,1014.22
2017-07-06T01:10:06.490Z,1014.24
2017-07-06T01:11:06.428Z,1014.24
2017-07-06T01:12:06.364Z,1014.18
2017-07-06T01:13:06.302Z,1014.23
2017-07-06T01:14:06.240Z,1014.21
2017-07-06T01:15:06.176Z,1014.21
2017-07-06T01:16:06.113Z,1014.22
2017-07-06T01:17:06.049Z,1014.22
2017-07-06T01:18:06.136Z,1014.23
2017-07-06T01:19:05.923Z,1014.23
2017-07-06T01:20:05.861Z,1014.23
2017-07-06T01:21:05.799Z,1014.25
2017-07-06T01:22:05.734Z,1014.22
2017-07-06T01:23:05.671Z,1014.26
2017-07-06T01:24:05.608Z,1014.29
2017-07-06T01:25:05.545Z,1014.29
2017-07-06T01:26:05.483Z,1014.29
2017-07-06T01:27:05.419Z,1014.29
2017-07-06T01:28:05.356Z,1014.31
2017-07-06T01:29:05.294Z,1014.3
2017-07-06T01:30:05.229Z,1014.33
2017-07-06T01:31:05.168Z,1014.31
2017-07-06T01:32:05.305Z,1014.33
2017-07-06T01:33:05.040Z,1014.35
2017-07-06T01:34:04.978Z,1014.33
2017-07-06T01:35:04.916Z,1014.31
2017-07-06T01:36:04.852Z,1014.33
2017-07-06T01:37:04.789Z,1014.29
2017-07-06T01:38:04.727Z,1014.3
2017-07-06T01:39:04.662Z,1014.31
2017-07-06T01:40:04.600Z,1014.3
2017-07-06T01:41:04.537Z,1014.28
2017-07-06T01:42:04.474Z,1014.3
2017-07-06T01:43:04.411Z,1014.29
2017-07-06T01:44:04.348Z,1014.27
2017-07-06T01:45:04.285Z,1014.27
2017-07-06T01:46:04.222Z,1014.24
2017-07-06T01:47:04.158Z,1014.24
2017-07-06T01:48:04.097Z,1014.26
2017-07-06T01:49:04.033Z,1014.27
2017-07-06T01:50:03.969Z,1014.25
2017-07-06T01:51:03.907Z,1014.3
2017-07-06T01:52:03.843Z,1014.3
2017-07-06T01:53:03.781Z,1014.33
2017-07-06T01:54:03.724Z,1014.31
2017-07-06T01:55:03.656Z,1014.33
2017-07-06T01:56:03.592Z,1014.37
2017-07-06T01:57:03.527Z,1014.38
2017-07-06T01:58:03.466Z,1014.32
2017-07-06T01:59:03.402Z,1014.39
2017-07-06T02:00:03.339Z,1014.4
2017-07-06T02:01:03.276Z,1014.36
2017-07-06T02:02:03.213Z,1014.41
2017-07-06T02:03:03.150Z,1014.39
2017-07-06T02:04:03.087Z,1014.43
2017-07-06T02:05:03.024Z,1014.39
2017-07-06T02:06:02.961Z,1014.37
2017-07-06T02:07:02.898Z,1014.4
2017-07-06T02:08:02.834Z,1014.39
2017-07-06T02:09:02.772Z,1014.41
2017-07-06T02:10:02.708Z,1014.38
2017-07-06T02:11:02.646Z,1014.42
2017-07-06T02:12:02.583Z,1014.45
2017-07-06T02:13:02.519Z,1014.43
2017-07-06T02:14:02.456Z,1014.49
2017-07-06T02:15:02.394Z,1014.5
2017-07-06T02:16:02.332Z,1014.53
2017-07-06T02:17:02.267Z,1014.55
2017-07-06T02:18:02.206Z,1014.53
2017-07-06T02:19:02.140Z,1014.56
2017-07-06T02:20:02.077Z,1014.56
2017-07-06T02:21:02.015Z,1014.53
2017-07-06T02:22:01.952Z,1014.53
2017-07-06T02:23:01.889Z,1014.55
2017-07-06T02:24:01.825Z,1014.53
2017-07-06T02:25:01.783Z,1014.54
2017-07-06T02:26:01.700Z,1014.52
2017-07-06T02:27:01.636Z,1014.52
2017-07-06T02:28:01.573Z,1014.53
2017-07-06T02:29:01.510Z,1014.54
2017-07-06T02:30:01.448Z,1014.51
2017-07-06T02:31:01.384Z,1014.5
2017-07-06T02:32:01.321Z,1014.56
2017-07-06T02:33:01.260Z,1014.55
2017-07-06T02:34:01.195Z,1014.5
2017-07-06T02:35:01.132Z,1014.48
2017-07-06T02:36:01.069Z,1014.51
2017-07-06T02:37:01.007Z,1014.49
2017-07-06T02:38:00.943Z,1014.51
2017-07-06T02:39:00.880Z,1014.49
2017-07-06T02:40:00.817Z,1014.5
2017-07-06T02:41:00.753Z,1014.5
2017-07-06T02:42:00.691Z,1014.53
2017-07-06T02:43:00.627Z,1014.5
2017-07-06T02:44:00.565Z,1014.49
2017-07-06T02:45:00.500Z,1014.5
2017-07-06T02:46:00.437Z,1014.5
2017-07-06T02:47:00.375Z,1014.47
2017-07-06T02:48:00.312Z,1014.51
2017-07-06T02:49:00.248Z,1014.52
2017-07-06T02:50:00.186Z,1014.52
2017-07-06T02:51:00.123Z,1014.52
2017-07-06T02:52:00.060Z,1014.51
2017-07-06T02:52:59.996Z,1014.51
2017-07-06T02:53:59.933Z,1014.54
2017-07-06T02:54:59.871Z,1014.56
2017-07-06T02:55:59.807Z,1014.54
2017-07-06T02:56:59.745Z,1014.53
2017-07-06T02:57:59.684Z,1014.52
2017-07-06T02:58:59.619Z,1014.52
2017-07-06T02:59:59.560Z,1014.5
2017-07-06T03:00:59.493Z,1014.5
2017-07-06T03:01:59.430Z,1014.54
2017-07-06T03:02:59.365Z,1014.56
2017-07-06T03:03:59.303Z,1014.57
2017-07-06T03:04:59.240Z,1014.6
2017-07-06T03:05:59.177Z,1014.57
2017-07-06T03:06:59.114Z,1014.62
2017-07-06T03:07:59.050Z,1014.6
2017-07-06T03:08:58.987Z,1014.59
2017-07-06T03:09:58.929Z,1014.61
2017-07-06T03:10:58.862Z,1014.59
2017-07-06T03:11:58.799Z,1014.58
2017-07-06T03:12:58.736Z,1014.61
2017-07-06T03:13:58.673Z,1014.61
2017-07-06T03:14:58.610Z,1014.6
2017-07-06T03:15:58.547Z,1014.63
2017-07-06T03:16:58.484Z,1014.63
2017-07-06T03:17:58.421Z,1014.62
2017-07-06T03:18:58.358Z,1014.62
2017-07-06T03:19:58.295Z,1014.6
2017-07-06T03:20:58.231Z,1014.59
2017-07-06T03:21:58.167Z,1014.58
2017-07-06T03:22:58.104Z,1014.62
2017-07-06T03:23:58.042Z,1014.58
2017-07-06T03:24:57.978Z,1014.57
2017-07-06T03:25:57.916Z,1014.59
2017-07-06T03:26:57.852Z,1014.6
2017-07-06T03:27:57.789Z,1014.6
2017-07-06T03:28:57.726Z,1014.58
2017-07-06T03:29:57.663Z,1014.63
2017-07-06T03:30:57.600Z,1014.63
2017-07-06T03:31:57.536Z,1014.62
2017-07-06T03:32:57.474Z,1014.6
2017-07-06T03:33:57.411Z,1014.64
2017-07-06T03:34:57.348Z,1014.63
2017-07-06T03:35:57.283Z,1014.65
2017-07-06T03:36:57.221Z,1014.64
2017-07-06T03:37:57.158Z,1014.64
2017-07-06T03:38:57.096Z,1014.6
2017-07-06T03:39:57.031Z,1014.63
2017-07-06T03:40:56.968Z,1014.61
2017-07-06T03:41:56.906Z,1014.63
2017-07-06T03:42:56.842Z,1014.62
2017-07-06T03:43:56.779Z,1014.64
2017-07-06T03:44:56.717Z,1014.63
2017-07-06T03:45:56.653Z,1014.63
2017-07-06T03:46:56.589Z,1014.64
2017-07-06T03:47:56.528Z,1014.61
2017-07-06T03:48:56.463Z,1014.62
2017-07-06T03:49:56.401Z,1014.6
2017-07-06T03:50:56.337Z,1014.65
2017-07-06T03:51:56.274Z,1014.62
2017-07-06T03:52:56.211Z,1014.68
2017-07-06T03:53:56.147Z,1014.68
2017-07-06T03:54:56.085Z,1014.66
2017-07-06T03:55:56.021Z,1014.66
2017-07-06T03:56:55.958Z,1014.65
2017-07-06T03:57:55.894Z,1014.69
2017-07-06T03:58:55.832Z,1014.64
2017-07-06T03:59:55.769Z,1014.66
2017-07-06T04:00:55.707Z,1014.64
2017-07-06T04:01:55.644Z,1014.69
2017-07-06T04:02:55.581Z,1014.69
2017-07-06T04:03:55.516Z,1014.69
2017-07-06T04:04:55.453Z,1014.65
2017-07-06T04:05:55.390Z,1014.66
2017-07-06T04:06:55.329Z,1014.62
2017-07-06T04:07:55.265Z,1014.64
2017-07-06T04:08:55.200Z,1014.65
2017-07-06T04:09:55.141Z,1014.64
2017-07-06T04:10:55.075Z,1014.64
2017-07-06T04:11:55.011Z,1014.63
2017-07-06T04:12:54.948Z,1014.63
2017-07-06T04:13:54.887Z,1014.66
2017-07-06T04:14:54.822Z,1014.66
2017-07-06T04:15:54.763Z,1014.63
2017-07-06T04:16:54.696Z,1014.63
2017-07-06T04:17:54.633Z,1014.64
2017-07-06T04:18:54.570Z,1014.67
2017-07-06T04:19:54.505Z,1014.68
2017-07-06T04:20:54.444Z,1014.68
2017-07-06T04:21:54.379Z,1014.72
2017-07-06T04:22:54.316Z,1014.74
2017-07-06T04:23:54.254Z,1014.78
2017-07-06T04:24:54.194Z,1014.76
2017-07-06T04:25:54.128Z,1014.79
2017-07-06T04:26:54.065Z,1014.78
2017-07-06T04:27:54.001Z,1014.8
2017-07-06T04:28:53.938Z,1014.81
2017-07-06T04:29:53.875Z,1014.85
2017-07-06T04:30:53.812Z,1014.88
2017-07-06T04:31:53.749Z,1014.87
2017-07-06T04:32:53.686Z,1014.87
2017-07-06T04:33:53.623Z,1014.87
2017-07-06T04:34:53.560Z,1014.89
2017-07-06T04:35:53.497Z,1014.9
2017-07-06T04:36:53.434Z,1014.91
2017-07-06T04:37:53.371Z,1014.89
2017-07-06T04:38:53.307Z,1014.9
2017-07-06T04:39:53.245Z,1014.9
2017-07-06T04:40:53.181Z,1014.89
2017-07-06T04:41:53.118Z,1014.89
2017-07-06T04:42:53.061Z,1014.9
2017-07-06T04:43:52.992Z,1014.92
2017-07-06T04:44:52.932Z,1014.92
2017-07-06T04:45:52.867Z,1014.93
2017-07-06T04:46:52.804Z,1014.94
2017-07-06T04:47:52.742Z,1014.98
2017-07-06T04:48:52.679Z,1014.98
2017-07-06T04:49:52.615Z,1014.99
2017-07-06T04:50:52.552Z,1014.99
2017-07-06T04:51:52.491Z,1014.98
2017-07-06T04:52:52.426Z,1014.97
2017-07-06T04:53:52.366Z,1015
2017-07-06T04:54:52.300Z,1014.99
2017-07-06T04:55:52.236Z,1014.97
2017-07-06T04:56:52.175Z,1014.97
2017-07-06T04:57:52.111Z,1014.96
2017-07-06T04:58:52.048Z,1014.99
2017-07-06T04:59:51.985Z,1014.99
2017-07-06T05:00:51.922Z,1015
2017-07-06T05:01:51.860Z,1014.99
2017-07-06T05:02:51.797Z,1015
2017-07-06T05:03:51.733Z,1015
2017-07-06T05:04:51.671Z,1015.01
2017-07-06T05:05:51.606Z,1015.03
2017-07-06T05:06:51.543Z,1015.03
2017-07-06T05:07:51.481Z,1015.03
2017-07-06T05:08:51.419Z,1015.02
2017-07-06T05:09:51.355Z,1015.04
2017-07-06T05:10:51.441Z,1015.05
2017-07-06T05:11:51.228Z,1015.01
2017-07-06T05:12:51.165Z,1015.04
2017-07-06T05:13:51.106Z,1015.03
2017-07-06T05:14:51.039Z,1015.06
2017-07-06T05:15:50.976Z,1015.03
2017-07-06T05:16:50.915Z,1015.04
2017-07-06T05:17:50.850Z,1015.04
2017-07-06T05:18:50.787Z,1015.03
2017-07-06T05:19:50.724Z,1015.06
2017-07-06T05:20:50.662Z,1015.07
2017-07-06T05:21:50.600Z,1015.08
2017-07-06T05:22:50.535Z,1015.12
2017-07-06T05:23:50.473Z,1015.1
2017-07-06T05:24:50.412Z,1015.08
2017-07-06T05:25:50.346Z,1015.09
2017-07-06T05:26:50.283Z,1015.11
2017-07-06T05:27:50.220Z,1015.12
2017-07-06T05:28:50.161Z,1015.1
2017-07-06T05:29:50.095Z,1015.11
2017-07-06T05:30:50.032Z,1015.09
2017-07-06T05:31:49.969Z,1015.1
2017-07-06T05:32:49.906Z,1015.08
2017-07-06T05:33:49.843Z,1015.08
2017-07-06T05:34:49.784Z,1015.08
2017-07-06T05:35:49.719Z,1015.07
2017-07-06T05:36:49.653Z,1015.05
2017-07-06T05:37:49.592Z,1015.05
2017-07-06T05:38:49.529Z,1015.09
2017-07-06T05:39:49.465Z,1015.09
2017-07-06T05:40:49.402Z,1015.08
2017-07-06T05:41:49.339Z,1015.05
2017-07-06T05:42:49.277Z,1015.08
2017-07-06T05:43:49.212Z,1015.08
2017-07-06T05:44:49.150Z,1015.08
2017-07-06T05:45:49.087Z,1015.1
2017-07-06T05:46:49.026Z,1015.15
2017-07-06T05:47:48.962Z,1015.13
2017-07-06T05:48:48.898Z,1015.19
2017-07-06T05:49:48.836Z,1015.18
2017-07-06T05:50:48.773Z,1015.18
2017-07-06T05:51:48.709Z,1015.16
2017-07-06T05:52:48.647Z,1015.21
2017-07-06T05:53:48.583Z,1015.2
2017-07-06T05:54:48.520Z,1015.24
2017-07-06T05:55:48.460Z,1015.23
2017-07-06T05:56:48.394Z,1015.25
2017-07-06T05:57:48.331Z,1015.28
2017-07-06T05:58:48.271Z,1015.27
2017-07-06T05:59:48.206Z,1015.28
2017-07-06T06:00:48.143Z,1015.29
2017-07-06T06:01:48.079Z,1015.31
2017-07-06T06:02:48.018Z,1015.25
2017-07-06T06:03:47.953Z,1015.28
2017-07-06T06:04:47.891Z,1015.32
2017-07-06T06:05:47.827Z,1015.27
2017-07-06T06:06:47.765Z,1015.3
2017-07-06T06:07:47.702Z,1015.28
2017-07-06T06:08:47.639Z,1015.27
2017-07-06T06:09:47.576Z,1015.3
2017-07-06T06:10:47.514Z,1015.23
2017-07-06T06:11:47.451Z,1015.27
2017-07-06T06:12:47.387Z,1015.27
2017-07-06T06:13:47.323Z,1015.25
2017-07-06T06:14:47.264Z,1015.2
2017-07-06T06:15:47.200Z,1015.22
2017-07-06T06:16:47.134Z,1015.21
2017-07-06T06:17:47.074Z,1015.17
2017-07-06T06:18:47.010Z,1015.2
2017-07-06T06:19:46.947Z,1015.2
2017-07-06T06:20:46.883Z,1015.21
2017-07-06T06:21:46.821Z,1015.26
2017-07-06T06:22:46.760Z,1015.24
2017-07-06T06:23:46.695Z,1015.25
2017-07-06T06:24:46.632Z,1015.23
2017-07-06T06:25:46.573Z,1015.28
2017-07-06T06:26:46.507Z,1015.28
2017-07-06T06:27:46.444Z,1015.26
2017-07-06T06:28:46.381Z,1015.26
2017-07-06T06:29:46.317Z,1015.3
2017-07-06T06:30:46.254Z,1015.26
2017-07-06T06:31:46.193Z,1015.28
2017-07-06T06:32:46.129Z,1015.3
2017-07-06T06:33:46.076Z,1015.29
2017-07-06T06:34:46.002Z,1015.35
2017-07-06T06:35:45.954Z,1015.32
2017-07-06T06:36:45.877Z,1015.34
2017-07-06T06:37:45.814Z,1015.32
2017-07-06T06:38:45.750Z,1015.31
2017-07-06T06:39:45.688Z,1015.38
2017-07-06T06:40:45.625Z,1015.33
2017-07-06T06:41:45.561Z,1015.35
2017-07-06T06:42:45.500Z,1015.37
2017-07-06T06:43:45.436Z,1015.38
2017-07-06T06:44:45.375Z,1015.34
2017-07-06T06:45:45.316Z,1015.36
2017-07-06T06:46:45.248Z,1015.34
2017-07-06T06:47:45.186Z,1015.37
2017-07-06T06:48:45.124Z,1015.36
2017-07-06T06:49:45.060Z,1015.41
2017-07-06T06:50:44.998Z,1015.36
2017-07-06T06:51:44.937Z,1015.33
2017-07-06T06:52:44.869Z,1015.33
2017-07-06T06:53:44.811Z,1015.39
2017-07-06T06:54:44.744Z,1015.39
2017-07-06T06:55:44.682Z,1015.38
2017-07-06T06:56:44.622Z,1015.39
2017-07-06T06:57:44.555Z,1015.38
2017-07-06T06:58:44.504Z,1015.48
2017-07-06T06:59:44.430Z,1015.46
2017-07-06T07:00:44.374Z,1015.51
2017-07-06T07:01:44.322Z,1015.49
2017-07-06T07:02:44.253Z,1015.49
2017-07-06T07:03:44.181Z,1015.47
2017-07-06T07:04:44.125Z,1015.49
2017-07-06T07:05:44.085Z,1015.49
2017-07-06T07:06:43.991Z,1015.53
2017-07-06T07:07:43.926Z,1015.54
2017-07-06T07:08:43.863Z,1015.53
2017-07-06T07:09:43.802Z,1015.54
2017-07-06T07:10:43.739Z,1015.56
2017-07-06T07:11:43.675Z,1015.55
2017-07-06T07:12:43.614Z,1015.5
2017-07-06T07:13:43.552Z,1015.55
2017-07-06T07:14:43.486Z,1015.56
2017-07-06T07:15:43.426Z,1015.56
2017-07-06T07:16:43.362Z,1015.54
2017-07-06T07:17:43.299Z,1015.55
2017-07-06T07:18:43.234Z,1015.57
2017-07-06T07:19:43.175Z,1015.55
2017-07-06T07:20:43.113Z,1015.57
2017-07-06T07:21:43.047Z,1015.55
2017-07-06T07:22:42.988Z,1015.56
2017-07-06T07:23:42.926Z,1015.54
2017-07-06T07:24:42.858Z,1015.51
2017-07-06T07:25:42.794Z,1015.57
2017-07-06T07:26:42.731Z,1015.56
2017-07-06T07:27:42.669Z,1015.55
2017-07-06T07:28:42.606Z,1015.58
2017-07-06T07:29:42.543Z,1015.58
2017-07-06T07:30:42.483Z,1015.59
2017-07-06T07:31:42.418Z,1015.62
2017-07-06T07:32:42.355Z,1015.61
2017-07-06T07:33:42.291Z,1015.61
2017-07-06T07:34:42.230Z,1015.61
2017-07-06T07:35:42.316Z,1015.62
2017-07-06T07:36:42.102Z,1015.62
2017-07-06T07:37:42.041Z,1015.61
2017-07-06T07:38:41.978Z,1015.64
2017-07-06T07:39:42.015Z,1015.61
2017-07-06T07:40:41.851Z,1015.63
2017-07-06T07:41:41.790Z,1015.65
2017-07-06T07:42:41.726Z,1015.65
2017-07-06T07:43:41.663Z,1015.64
2017-07-06T07:44:41.599Z,1015.65
2017-07-06T07:45:41.688Z,1015.64
2017-07-06T07:46:41.474Z,1015.62
2017-07-06T07:47:41.411Z,1015.62
2017-07-06T07:48:41.348Z,1015.65
2017-07-06T07:49:41.286Z,1015.66
2017-07-06T07:50:41.324Z,1015.7
2017-07-06T07:51:41.160Z,1015.65
2017-07-06T07:52:41.097Z,1015.68
2017-07-06T07:53:41.035Z,1015.7
2017-07-06T07:54:40.972Z,1015.68
2017-07-06T07:55:40.910Z,1015.71
2017-07-06T07:56:40.846Z,1015.73
2017-07-06T07:57:40.784Z,1015.71
2017-07-06T07:58:40.720Z,1015.74
2017-07-06T07:59:40.658Z,1015.74
2017-07-06T08:00:40.595Z,1015.76
2017-07-06T08:01:40.534Z,1015.8
2017-07-06T08:02:40.469Z,1015.74
2017-07-06T08:03:40.406Z,1015.77
2017-07-06T08:04:40.344Z,1015.75
2017-07-06T08:05:40.282Z,1015.78
2017-07-06T08:06:40.220Z,1015.74
2017-07-06T08:07:40.157Z,1015.73
2017-07-06T08:08:40.104Z,1015.72
2017-07-06T08:09:40.030Z,1015.75
2017-07-06T08:10:39.966Z,1015.68
2017-07-06T08:11:39.904Z,1015.67
2017-07-06T08:12:39.843Z,1015.68
2017-07-06T08:13:39.778Z,1015.66
2017-07-06T08:14:39.715Z,1015.66
2017-07-06T08:15:39.653Z,1015.68
2017-07-06T08:16:39.591Z,1015.68
2017-07-06T08:17:39.526Z,1015.71
2017-07-06T08:18:39.465Z,1015.69
2017-07-06T08:19:39.414Z,1015.66
2017-07-06T08:20:39.338Z,1015.68
2017-07-06T08:21:39.277Z,1015.65
2017-07-06T08:22:39.214Z,1015.67
2017-07-06T08:23:39.151Z,1015.7
2017-07-06T08:24:39.089Z,1015.69
2017-07-06T08:25:39.026Z,1015.72
2017-07-06T08:26:38.964Z,1015.68
2017-07-06T08:27:38.901Z,1015.71
2017-07-06T08:28:38.838Z,1015.69
2017-07-06T08:29:38.775Z,1015.69
2017-07-06T08:30:38.715Z,1015.68
2017-07-06T08:31:38.650Z,1015.69
2017-07-06T08:32:38.587Z,1015.71
2017-07-06T08:33:38.526Z,1015.64
2017-07-06T08:34:38.523Z,1015.66
2017-07-06T08:35:38.400Z,1015.64
2017-07-06T08:36:38.338Z,1015.68
2017-07-06T08:37:38.277Z,1015.7
2017-07-06T08:38:38.213Z,1015.65
2017-07-06T08:39:38.149Z,1015.62
2017-07-06T08:40:38.087Z,1015.61
2017-07-06T08:41:38.073Z,1015.64
2017-07-06T08:42:37.963Z,1015.68
2017-07-06T08:43:37.899Z,1015.65
2017-07-06T08:44:37.838Z,1015.63
2017-07-06T08:45:37.808Z,1015.61
2017-07-06T08:46:37.713Z,1015.65
2017-07-06T08:47:37.651Z,1015.63
2017-07-06T08:48:37.589Z,1015.68
2017-07-06T08:49:37.527Z,1015.71
2017-07-06T08:50:37.465Z,1015.65
2017-07-06T08:51:37.401Z,1015.68
2017-07-06T08:52:37.339Z,1015.68
2017-07-06T08:53:37.274Z,1015.65
2017-07-06T08:54:37.260Z,1015.68
2017-07-06T08:55:37.153Z,1015.65
2017-07-06T08:56:37.090Z,1015.63
2017-07-06T08:57:37.026Z,1015.62
2017-07-06T08:58:37.167Z,1015.58
2017-07-06T08:59:36.904Z,1015.61
2017-07-06T09:00:36.838Z,1015.65
2017-07-06T09:01:36.777Z,1015.65
2017-07-06T09:02:36.715Z,1015.67
2017-07-06T09:03:36.653Z,1015.65
2017-07-06T09:04:36.591Z,1015.62
2017-07-06T09:05:36.528Z,1015.63
2017-07-06T09:06:36.465Z,1015.61
2017-07-06T09:07:36.405Z,1015.64
2017-07-06T09:08:36.341Z,1015.67
2017-07-06T09:09:36.278Z,1015.66
2017-07-06T09:10:36.216Z,1015.65
2017-07-06T09:11:36.154Z,1015.62
2017-07-06T09:12:36.092Z,1015.61
2017-07-06T09:13:36.031Z,1015.59
2017-07-06T09:14:35.967Z,1015.61
2017-07-06T09:15:35.904Z,1015.62
2017-07-06T09:16:35.843Z,1015.66
2017-07-06T09:17:35.781Z,1015.67
2017-07-06T09:18:35.718Z,1015.69
2017-07-06T09:19:35.655Z,1015.68
2017-07-06T09:20:35.594Z,1015.68
2017-07-06T09:21:35.532Z,1015.64
2017-07-06T09:22:35.470Z,1015.68
2017-07-06T09:23:35.408Z,1015.65
2017-07-06T09:24:35.346Z,1015.66
2017-07-06T09:25:35.284Z,1015.66
2017-07-06T09:26:35.221Z,1015.65
2017-07-06T09:27:35.200Z,1015.64
2017-07-06T09:28:35.097Z,1015.66
2017-07-06T09:29:35.035Z,1015.65
2017-07-06T09:30:34.974Z,1015.64
2017-07-06T09:31:34.911Z,1015.65
2017-07-06T09:32:34.850Z,1015.65
2017-07-06T09:33:34.815Z,1015.6
2017-07-06T09:34:34.729Z,1015.59
2017-07-06T09:35:34.690Z,1015.63
2017-07-06T09:36:34.601Z,1015.63
2017-07-06T09:37:34.538Z,1015.56
2017-07-06T09:38:34.476Z,1015.55
2017-07-06T09:39:34.413Z,1015.57
2017-07-06T09:40:34.350Z,1015.58
2017-07-06T09:41:34.296Z,1015.53
2017-07-06T09:42:34.227Z,1015.57
2017-07-06T09:43:34.167Z,1015.56
2017-07-06T09:44:34.105Z,1015.54
2017-07-06T09:45:34.042Z,1015.55
2017-07-06T09:46:33.977Z,1015.58
2017-07-06T09:47:33.916Z,1015.6
2017-07-06T09:48:33.852Z,1015.59
2017-07-06T09:49:33.806Z,1015.59
2017-07-06T09:50:33.728Z,1015.57
2017-07-06T09:51:33.667Z,1015.59
2017-07-06T09:52:33.604Z,1015.56
2017-07-06T09:53:33.542Z,1015.52
2017-07-06T09:54:33.480Z,1015.52
2017-07-06T09:55:33.566Z,1015.53
2017-07-06T09:56:33.355Z,1015.54
2017-07-06T09:57:33.292Z,1015.51
2017-07-06T09:58:33.229Z,1015.5
2017-07-06T09:59:33.167Z,1015.48
2017-07-06T10:00:33.354Z,1015.48
2017-07-06T10:01:33.048Z,1015.45
2017-07-06T10:02:32.980Z,1015.42
2017-07-06T10:03:32.921Z,1015.45
2017-07-06T10:04:32.905Z,1015.4
2017-07-06T10:05:32.794Z,1015.41
2017-07-06T10:06:32.730Z,1015.39
2017-07-06T10:07:32.669Z,1015.38
2017-07-06T10:08:32.605Z,1015.39
2017-07-06T10:09:32.543Z,1015.4
2017-07-06T10:10:32.484Z,1015.44
2017-07-06T10:11:32.420Z,1015.46
2017-07-06T10:12:32.356Z,1015.42
2017-07-06T10:13:32.304Z,1015.41
2017-07-06T10:14:32.230Z,1015.41
2017-07-06T10:15:32.169Z,1015.4
2017-07-06T10:16:32.106Z,1015.41
2017-07-06T10:17:32.043Z,1015.42
2017-07-06T10:18:31.987Z,1015.42
2017-07-06T10:19:31.920Z,1015.43
2017-07-06T10:20:31.858Z,1015.39
2017-07-06T10:21:31.794Z,1015.39
2017-07-06T10:22:31.733Z,1015.39
2017-07-06T10:23:31.670Z,1015.4
2017-07-06T10:24:31.608Z,1015.4
2017-07-06T10:25:31.545Z,1015.37
2017-07-06T10:26:31.483Z,1015.4
2017-07-06T10:27:31.422Z,1015.4
2017-07-06T10:28:31.357Z,1015.36
2017-07-06T10:29:31.297Z,1015.35
2017-07-06T10:30:31.234Z,1015.33
2017-07-06T10:31:31.172Z,1015.38
2017-07-06T10:32:31.109Z,1015.42
2017-07-06T10:33:31.047Z,1015.39
2017-07-06T10:34:30.984Z,1015.4
2017-07-06T10:35:30.921Z,1015.4
2017-07-06T10:36:30.863Z,1015.39
2017-07-06T10:37:30.796Z,1015.4
2017-07-06T10:38:30.734Z,1015.41
2017-07-06T10:39:30.683Z,1015.36
2017-07-06T10:40:30.609Z,1015.38
2017-07-06T10:41:30.578Z,1015.36
2017-07-06T10:42:30.486Z,1015.35
2017-07-06T10:43:30.422Z,1015.36
2017-07-06T10:44:30.360Z,1015.32
2017-07-06T10:45:30.298Z,1015.33
2017-07-06T10:46:30.234Z,1015.32
2017-07-06T10:47:30.175Z,1015.35
2017-07-06T10:48:30.113Z,1015.33
2017-07-06T10:49:30.048Z,1015.33
2017-07-06T10:50:29.987Z,1015.34
2017-07-06T10:51:29.924Z,1015.34
2017-07-06T10:52:29.861Z,1015.31
2017-07-06T10:53:29.799Z,1015.28
2017-07-06T10:54:29.736Z,1015.33
2017-07-06T10:55:29.676Z,1015.31
2017-07-06T10:56:29.619Z,1015.31
2017-07-06T10:57:29.694Z,1015.3
2017-07-06T10:58:29.487Z,1015.3
2017-07-06T10:59:29.425Z,1015.3
2017-07-06T11:00:29.363Z,1015.29
2017-07-06T11:01:29.301Z,1015.29
2017-07-06T11:02:29.238Z,1015.3
2017-07-06T11:03:29.176Z,1015.26
2017-07-06T11:04:29.111Z,1015.26
2017-07-06T11:05:29.051Z,1015.3
2017-07-06T11:06:28.990Z,1015.26
2017-07-06T11:07:28.934Z,1015.22
2017-07-06T11:08:28.866Z,1015.24
2017-07-06T11:09:28.805Z,1015.21
2017-07-06T11:10:28.743Z,1015.22
2017-07-06T11:11:28.681Z,1015.23
2017-07-06T11:12:28.619Z,1015.21
2017-07-06T11:13:28.557Z,1015.18
2017-07-06T11:14:28.502Z,1015.17
2017-07-06T11:15:28.432Z,1015.16
2017-07-06T11:16:28.371Z,1015.17
2017-07-06T11:17:28.318Z,1015.16
2017-07-06T11:18:28.246Z,1015.13
2017-07-06T11:19:28.187Z,1015.18
2017-07-06T11:20:28.121Z,1015.14
2017-07-06T11:21:28.065Z,1015.16
2017-07-06T11:22:28.004Z,1015.12
2017-07-06T11:23:27.932Z,1015.11
2017-07-06T11:24:27.869Z,1015.13
2017-07-06T11:25:27.807Z,1015.11
2017-07-06T11:26:27.743Z,1015.14
2017-07-06T11:27:27.681Z,1015.13
2017-07-06T11:28:27.619Z,1015.11
2017-07-06T11:29:27.557Z,1015.06
2017-07-06T11:30:27.495Z,1015.08
2017-07-06T11:31:27.434Z,1015.08
2017-07-06T11:32:27.370Z,1015.09
2017-07-06T11:33:27.309Z,1015.06
2017-07-06T11:34:27.246Z,1015.07
2017-07-06T11:35:27.187Z,1015.04
2017-07-06T11:36:27.161Z,1015.01
2017-07-06T11:37:27.060Z,1015.04
2017-07-06T11:38:27.003Z,1015
2017-07-06T11:39:26.937Z,1014.98
2017-07-06T11:40:26.877Z,1014.98
2017-07-06T11:41:26.814Z,1015
2017-07-06T11:42:26.753Z,1014.96
2017-07-06T11:43:26.695Z,1014.97
2017-07-06T11:44:26.628Z,1014.93
2017-07-06T11:45:26.566Z,1014.97
2017-07-06T11:46:26.505Z,1014.93
2017-07-06T11:47:26.443Z,1014.94
2017-07-06T11:48:26.380Z,1014.95
2017-07-06T11:49:26.320Z,1014.91
2017-07-06T11:50:26.259Z,1014.94
2017-07-06T11:51:26.201Z,1014.91
2017-07-06T11:52:26.135Z,1014.91
2017-07-06T11:53:26.071Z,1014.91
2017-07-06T11:54:26.009Z,1014.88
2017-07-06T11:55:25.955Z,1014.88
2017-07-06T11:56:25.891Z,1014.87
2017-07-06T11:57:25.824Z,1014.87
2017-07-06T11:58:25.765Z,1014.83
2017-07-06T11:59:25.700Z,1014.83
2017-07-06T12:00:25.646Z,1014.82
2017-07-06T12:01:25.578Z,1014.78
2017-07-06T12:02:25.517Z,1014.79
2017-07-06T12:03:25.465Z,1014.79
2017-07-06T12:04:25.720Z,1014.8
2017-07-06T12:05:25.350Z,1014.81
2017-07-06T12:06:25.269Z,1014.78
2017-07-06T12:07:25.206Z,1014.76
2017-07-06T12:08:25.145Z,1014.77